createdAt,value
2018-12-23T00:00:11.252Z,72.31
2018-12-23T00:00:45.890Z,72.58
2018-12-23T00:01:20.539Z,72.51
2018-12-23T00:01:55.150Z,72.64
2018-12-23T00:02:29.744Z,72.32
2018-12-23T00:03:04.818Z,72.72
2018-12-23T00:03:39.443Z,72.43
2018-12-23T00:04:14.188Z,72.41
2018-12-23T00:04:48.941Z,72.81
2018-12-23T00:05:23.549Z,72.54
2018-12-23T00:05:58.230Z,72.55
2018-12-23T00:06:32.838Z,73.20
2018-12-23T00:07:07.457Z,73.36
2018-12-23T00:07:42.164Z,72.41
2018-12-23T00:08:16.787Z,72.96
2018-12-23T00:08:51.398Z,73.36
2018-12-23T00:09:26.035Z,73.10
2018-12-23T00:10:00.664Z,73.11
2018-12-23T00:10:35.277Z,72.89
2018-12-23T00:11:09.962Z,73.39
2018-12-23T00:11:44.614Z,73.15
2018-12-23T00:12:19.912Z,73.15
2018-12-23T00:12:54.574Z,73.23
2018-12-23T00:13:29.253Z,72.82
2018-12-23T00:14:03.845Z,72.76
2018-12-23T00:14:38.736Z,72.38
2018-12-23T00:15:13.432Z,72.82
2018-12-23T00:15:48.036Z,73.44
2018-12-23T00:16:22.735Z,73.45
2018-12-23T00:16:58.603Z,73.34
2018-12-23T00:17:33.614Z,73.18
2018-12-23T00:18:08.376Z,72.49
2018-12-23T00:18:43.147Z,72.30
2018-12-23T00:19:17.860Z,72.37
2018-12-23T00:19:52.508Z,72.65
2018-12-23T00:20:27.201Z,72.66
2018-12-23T00:21:01.829Z,72.75
2018-12-23T00:21:36.545Z,72.66
2018-12-23T00:22:11.142Z,72.60
2018-12-23T00:22:45.743Z,72.40
2018-12-23T00:23:20.346Z,73.01
2018-12-23T00:23:54.944Z,72.21
2018-12-23T00:24:29.589Z,72.38
2018-12-23T00:25:05.346Z,72.75
2018-12-23T00:25:40.054Z,72.97
2018-12-23T00:26:14.686Z,72.49
2018-12-23T00:26:49.312Z,72.63
2018-12-23T00:27:23.950Z,72.42
2018-12-23T00:27:58.625Z,72.23
2018-12-23T00:28:33.226Z,72.76
2018-12-23T00:29:08.121Z,72.70
2018-12-23T00:29:43.235Z,72.30
2018-12-23T00:30:18.210Z,72.67
2018-12-23T00:30:52.891Z,72.18
2018-12-23T00:31:27.544Z,71.67
2018-12-23T00:32:02.160Z,71.75
2018-12-23T00:32:36.910Z,72.20
2018-12-23T00:33:11.676Z,71.80
2018-12-23T00:33:46.270Z,72.68
2018-12-23T00:34:20.882Z,72.47
2018-12-23T00:34:55.643Z,72.77
2018-12-23T00:35:30.251Z,72.63
2018-12-23T00:36:05.754Z,72.45
2018-12-23T00:36:40.481Z,72.55
2018-12-23T00:37:15.073Z,72.43
2018-12-23T00:37:49.681Z,72.58
2018-12-23T00:38:24.329Z,72.61
2018-12-23T00:38:58.942Z,72.12
2018-12-23T00:39:33.581Z,72.39
2018-12-23T00:40:08.201Z,72.32
2018-12-23T00:40:42.903Z,72.32
2018-12-23T00:41:17.979Z,72.35
2018-12-23T00:41:52.651Z,72.10
2018-12-23T00:42:27.237Z,72.59
2018-12-23T00:43:01.855Z,72.45
2018-12-23T00:43:36.554Z,72.54
2018-12-23T00:44:11.375Z,72.53
2018-12-23T00:44:45.951Z,72.45
2018-12-23T00:45:20.539Z,72.60
2018-12-23T00:45:55.146Z,72.77
2018-12-23T00:46:29.861Z,72.52
2018-12-23T00:47:06.160Z,72.40
2018-12-23T00:47:43.813Z,73.36
2018-12-23T00:48:18.620Z,72.95
2018-12-23T00:48:53.222Z,71.93
2018-12-23T00:49:28.470Z,72.57
2018-12-23T00:50:03.511Z,72.28
2018-12-23T00:50:38.230Z,72.67
2018-12-23T00:51:13.046Z,73.01
2018-12-23T00:51:47.756Z,72.98
2018-12-23T00:52:22.372Z,72.76
2018-12-23T00:52:57.100Z,72.41
2018-12-23T00:53:31.676Z,71.94
2018-12-23T00:54:06.803Z,72.44
2018-12-23T00:54:41.435Z,72.86
2018-12-23T00:55:16.049Z,72.68
2018-12-23T00:55:50.631Z,72.30
2018-12-23T00:56:25.248Z,72.77
2018-12-23T00:57:00.025Z,72.66
2018-12-23T00:57:34.724Z,72.40
2018-12-23T00:58:09.397Z,71.96
2018-12-23T00:58:44.287Z,72.95
2018-12-23T00:59:18.946Z,72.32
2018-12-23T00:59:53.657Z,72.98
2018-12-23T01:00:28.292Z,72.70
2018-12-23T01:01:02.986Z,72.59
2018-12-23T01:01:37.635Z,72.91
2018-12-23T01:02:12.364Z,72.44
2018-12-23T01:02:47.037Z,72.22
2018-12-23T01:03:21.654Z,72.82
2018-12-23T01:03:56.265Z,72.24
2018-12-23T01:04:31.026Z,72.58
2018-12-23T01:05:07.434Z,72.32
2018-12-23T01:05:42.532Z,72.35
2018-12-23T01:06:17.791Z,72.59
2018-12-23T01:06:52.455Z,72.44
2018-12-23T01:07:27.400Z,72.89
2018-12-23T01:08:02.018Z,72.92
2018-12-23T01:08:36.681Z,72.62
2018-12-23T01:09:11.374Z,72.60
2018-12-23T01:09:46.116Z,73.07
2018-12-23T01:10:20.720Z,72.82
2018-12-23T01:10:55.332Z,72.93
2018-12-23T01:11:29.998Z,73.42
2018-12-23T01:12:05.105Z,73.02
2018-12-23T01:12:39.898Z,73.02
2018-12-23T01:13:14.517Z,73.24
2018-12-23T01:13:49.231Z,73.02
2018-12-23T01:14:23.818Z,73.20
2018-12-23T01:14:58.428Z,72.97
2018-12-23T01:15:33.073Z,72.92
2018-12-23T01:16:07.806Z,73.53
2018-12-23T01:16:42.490Z,73.53
2018-12-23T01:17:17.153Z,72.90
2018-12-23T01:17:51.750Z,73.78
2018-12-23T01:18:26.358Z,73.30
2018-12-23T01:19:00.945Z,73.16
2018-12-23T01:19:35.559Z,72.73
2018-12-23T01:20:10.221Z,73.15
2018-12-23T01:20:44.819Z,73.67
2018-12-23T01:21:19.951Z,73.66
2018-12-23T01:21:54.536Z,73.49
2018-12-23T01:22:29.200Z,73.34
2018-12-23T01:23:04.012Z,73.17
2018-12-23T01:23:38.713Z,73.19
2018-12-23T01:24:13.307Z,73.37
2018-12-23T01:24:47.899Z,73.57
2018-12-23T01:25:22.532Z,73.66
2018-12-23T01:25:57.114Z,73.97
2018-12-23T01:26:31.765Z,73.87
2018-12-23T01:27:06.433Z,73.34
2018-12-23T01:27:41.066Z,73.63
2018-12-23T01:28:15.712Z,73.51
2018-12-23T01:28:50.356Z,73.90
2018-12-23T01:29:25.010Z,73.46
2018-12-23T01:29:59.702Z,73.62
2018-12-23T01:30:34.450Z,73.49
2018-12-23T01:31:09.293Z,73.70
2018-12-23T01:31:44.049Z,73.54
2018-12-23T01:32:18.677Z,73.45
2018-12-23T01:32:53.354Z,73.53
2018-12-23T01:33:27.980Z,73.63
2018-12-23T01:34:02.587Z,73.41
2018-12-23T01:34:37.383Z,73.07
2018-12-23T01:35:12.301Z,73.15
2018-12-23T01:35:46.932Z,73.47
2018-12-23T01:36:21.544Z,72.75
2018-12-23T01:36:56.473Z,73.92
2018-12-23T01:37:31.089Z,73.62
2018-12-23T01:38:05.711Z,73.83
2018-12-23T01:38:40.425Z,73.66
2018-12-23T01:39:15.241Z,73.63
2018-12-23T01:39:49.855Z,73.18
2018-12-23T01:40:24.493Z,73.39
2018-12-23T01:40:59.134Z,73.10
2018-12-23T01:41:33.808Z,73.00
2018-12-23T01:42:08.746Z,72.85
2018-12-23T01:42:43.373Z,73.32
2018-12-23T01:43:17.977Z,73.17
2018-12-23T01:43:52.596Z,72.94
2018-12-23T01:44:27.230Z,73.25
2018-12-23T01:45:01.854Z,73.70
2018-12-23T01:45:36.502Z,73.09
2018-12-23T01:46:11.168Z,72.62
2018-12-23T01:46:46.234Z,73.58
2018-12-23T01:47:20.896Z,73.48
2018-12-23T01:47:55.536Z,73.29
2018-12-23T01:48:30.213Z,72.91
2018-12-23T01:49:05.255Z,73.14
2018-12-23T01:49:39.985Z,73.12
2018-12-23T01:50:14.582Z,73.16
2018-12-23T01:50:49.568Z,73.19
2018-12-23T01:51:24.152Z,73.48
2018-12-23T01:51:59.285Z,73.73
2018-12-23T01:52:33.964Z,73.38
2018-12-23T01:53:08.666Z,73.19
2018-12-23T01:53:43.390Z,73.47
2018-12-23T01:54:18.039Z,73.47
2018-12-23T01:54:52.642Z,73.66
2018-12-23T01:55:27.705Z,73.31
2018-12-23T01:56:02.614Z,73.80
2018-12-23T01:56:37.410Z,73.55
2018-12-23T01:57:12.080Z,73.78
2018-12-23T01:57:46.730Z,73.61
2018-12-23T01:58:21.405Z,73.66
2018-12-23T01:58:56.038Z,73.33
2018-12-23T01:59:30.668Z,73.49
2018-12-23T02:00:08.122Z,73.59
2018-12-23T02:00:42.752Z,73.14
2018-12-23T02:01:17.986Z,73.69
2018-12-23T02:01:52.789Z,73.66
2018-12-23T02:02:27.391Z,73.71
2018-12-23T02:03:02.035Z,74.12
2018-12-23T02:03:36.727Z,73.86
2018-12-23T02:04:11.376Z,74.06
2018-12-23T02:04:46.048Z,73.94
2018-12-23T02:05:21.119Z,73.71
2018-12-23T02:05:55.804Z,73.80
2018-12-23T02:06:30.407Z,73.91
2018-12-23T02:07:05.592Z,74.23
2018-12-23T02:07:40.240Z,73.71
2018-12-23T02:08:14.892Z,74.31
2018-12-23T02:08:49.548Z,73.83
2018-12-23T02:09:24.188Z,74.18
2018-12-23T02:09:58.823Z,73.95
2018-12-23T02:10:33.440Z,74.41
2018-12-23T02:11:08.186Z,74.61
2018-12-23T02:11:42.864Z,74.60
2018-12-23T02:12:17.487Z,74.35
2018-12-23T02:12:52.108Z,74.13
2018-12-23T02:13:26.700Z,74.34
2018-12-23T02:14:01.341Z,73.95
2018-12-23T02:14:35.925Z,73.95
2018-12-23T02:15:11.036Z,73.99
2018-12-23T02:15:45.669Z,74.23
2018-12-23T02:16:22.768Z,73.65
2018-12-23T02:16:57.364Z,73.67
2018-12-23T02:17:31.974Z,73.38
2018-12-23T02:18:06.637Z,73.62
2018-12-23T02:18:41.273Z,73.78
2018-12-23T02:19:15.928Z,73.77
2018-12-23T02:19:50.563Z,73.32
2018-12-23T02:20:25.199Z,73.45
2018-12-23T02:20:59.813Z,73.38
2018-12-23T02:21:34.441Z,73.33
2018-12-23T02:22:09.223Z,73.22
2018-12-23T02:22:44.399Z,73.67
2018-12-23T02:23:19.538Z,73.62
2018-12-23T02:23:54.457Z,73.44
2018-12-23T02:24:29.103Z,73.49
2018-12-23T02:25:04.325Z,73.54
2018-12-23T02:25:38.942Z,73.79
2018-12-23T02:26:13.527Z,73.84
2018-12-23T02:26:48.295Z,73.76
2018-12-23T02:27:23.085Z,74.12
2018-12-23T02:27:58.067Z,73.81
2018-12-23T02:28:32.757Z,73.75
2018-12-23T02:29:07.358Z,73.79
2018-12-23T02:29:42.155Z,73.73
2018-12-23T02:30:16.920Z,73.91
2018-12-23T02:30:52.230Z,73.96
2018-12-23T02:31:26.948Z,73.69
2018-12-23T02:32:01.975Z,73.62
2018-12-23T02:32:37.755Z,73.61
2018-12-23T02:33:12.368Z,73.62
2018-12-23T02:33:47.286Z,74.02
2018-12-23T02:34:21.970Z,74.06
2018-12-23T02:34:56.661Z,73.66
2018-12-23T02:35:31.402Z,73.77
2018-12-23T02:36:06.024Z,73.74
2018-12-23T02:36:40.716Z,73.76
2018-12-23T02:37:15.334Z,73.85
2018-12-23T02:37:49.965Z,74.10
2018-12-23T02:38:24.796Z,74.08
2018-12-23T02:38:59.598Z,74.03
2018-12-23T02:39:34.250Z,74.32
2018-12-23T02:40:08.912Z,73.97
2018-12-23T02:40:43.700Z,74.27
2018-12-23T02:41:18.395Z,74.40
2018-12-23T02:41:53.374Z,74.26
2018-12-23T02:42:28.660Z,74.77
2018-12-23T02:43:03.464Z,74.79
2018-12-23T02:43:38.072Z,74.66
2018-12-23T02:44:12.771Z,74.77
2018-12-23T02:44:47.422Z,75.00
2018-12-23T02:45:22.229Z,74.44
2018-12-23T02:45:56.960Z,74.76
2018-12-23T02:46:31.648Z,75.21
2018-12-23T02:47:06.451Z,74.99
2018-12-23T02:47:41.071Z,74.93
2018-12-23T02:48:15.788Z,74.76
2018-12-23T02:48:50.378Z,75.08
2018-12-23T02:49:25.481Z,74.74
2018-12-23T02:50:00.178Z,74.83
2018-12-23T02:50:34.837Z,75.01
2018-12-23T02:51:09.451Z,75.22
2018-12-23T02:51:44.051Z,75.17
2018-12-23T02:52:18.685Z,75.02
2018-12-23T02:52:53.739Z,75.04
2018-12-23T02:53:28.570Z,75.21
2018-12-23T02:54:03.299Z,74.88
2018-12-23T02:54:38.071Z,75.07
2018-12-23T02:55:13.241Z,74.82
2018-12-23T02:55:47.993Z,75.10
2018-12-23T02:56:23.970Z,75.15
2018-12-23T02:56:58.752Z,75.10
2018-12-23T02:57:33.588Z,75.48
2018-12-23T02:58:08.302Z,75.46
2018-12-23T02:58:42.933Z,75.35
2018-12-23T02:59:17.887Z,75.17
2018-12-23T02:59:52.790Z,75.81
2018-12-23T03:00:27.732Z,75.96
2018-12-23T03:01:03.038Z,75.69
2018-12-23T03:01:37.682Z,76.02
2018-12-23T03:02:12.774Z,76.24
2018-12-23T03:02:47.511Z,75.72
2018-12-23T03:03:22.150Z,76.10
2018-12-23T03:03:57.034Z,76.41
2018-12-23T03:04:32.018Z,76.13
2018-12-23T03:05:07.318Z,76.24
2018-12-23T03:05:41.932Z,76.31
2018-12-23T03:06:17.232Z,76.29
2018-12-23T03:06:52.059Z,76.42
2018-12-23T03:07:26.886Z,76.44
2018-12-23T03:08:01.582Z,76.49
2018-12-23T03:08:36.317Z,76.53
2018-12-23T03:09:10.956Z,76.17
2018-12-23T03:09:45.543Z,76.13
2018-12-23T03:10:20.150Z,76.55
2018-12-23T03:10:55.162Z,76.42
2018-12-23T03:11:30.183Z,76.36
2018-12-23T03:12:05.720Z,76.24
2018-12-23T03:12:40.394Z,76.67
2018-12-23T03:13:15.040Z,76.23
2018-12-23T03:13:49.635Z,76.76
2018-12-23T03:14:24.460Z,76.36
2018-12-23T03:14:59.552Z,76.44
2018-12-23T03:15:34.338Z,76.35
2018-12-23T03:16:09.433Z,75.99
2018-12-23T03:16:44.050Z,76.84
2018-12-23T03:17:18.666Z,76.72
2018-12-23T03:17:53.876Z,76.84
2018-12-23T03:18:28.572Z,76.71
2018-12-23T03:19:03.288Z,76.68
2018-12-23T03:19:37.910Z,76.48
2018-12-23T03:20:13.463Z,76.25
2018-12-23T03:20:48.096Z,76.55
2018-12-23T03:21:22.867Z,76.24
2018-12-23T03:21:57.864Z,76.12
2018-12-23T03:22:32.527Z,76.60
2018-12-23T03:23:07.159Z,76.39
2018-12-23T03:23:42.210Z,76.43
2018-12-23T03:24:17.258Z,76.30
2018-12-23T03:24:51.949Z,75.20
2018-12-23T03:25:26.697Z,75.62
2018-12-23T03:26:01.630Z,75.95
2018-12-23T03:26:36.230Z,75.79
2018-12-23T03:27:10.851Z,76.45
2018-12-23T03:27:45.456Z,76.58
2018-12-23T03:28:20.096Z,76.07
2018-12-23T03:28:55.019Z,75.98
2018-12-23T03:29:29.734Z,76.12
2018-12-23T03:30:05.483Z,76.35
2018-12-23T03:30:40.090Z,76.30
2018-12-23T03:31:14.763Z,76.49
2018-12-23T03:31:49.384Z,76.83
2018-12-23T03:32:24.479Z,76.97
2018-12-23T03:32:59.272Z,77.04
2018-12-23T03:33:33.914Z,76.65
2018-12-23T03:34:08.526Z,77.20
2018-12-23T03:34:43.253Z,76.98
2018-12-23T03:35:17.843Z,76.93
2018-12-23T03:35:52.500Z,77.34
2018-12-23T03:36:27.324Z,77.33
2018-12-23T03:37:02.013Z,77.38
2018-12-23T03:37:36.634Z,77.19
2018-12-23T03:38:11.384Z,77.54
2018-12-23T03:38:45.982Z,76.90
2018-12-23T03:39:20.722Z,77.24
2018-12-23T03:39:55.577Z,77.18
2018-12-23T03:40:31.534Z,77.07
2018-12-23T03:41:06.659Z,76.79
2018-12-23T03:41:41.313Z,76.54
2018-12-23T03:42:16.383Z,77.11
2018-12-23T03:42:51.065Z,77.04
2018-12-23T03:43:25.921Z,77.78
2018-12-23T03:44:00.621Z,76.84
2018-12-23T03:44:35.762Z,77.57
2018-12-23T03:45:10.402Z,77.42
2018-12-23T03:45:45.021Z,77.18
2018-12-23T03:46:19.616Z,77.47
2018-12-23T03:46:54.350Z,77.22
2018-12-23T03:47:29.127Z,76.66
2018-12-23T03:48:03.860Z,77.11
2018-12-23T03:48:38.622Z,77.33
2018-12-23T03:49:13.241Z,77.22
2018-12-23T03:49:47.853Z,77.48
2018-12-23T03:50:22.551Z,77.93
2018-12-23T03:50:57.496Z,77.59
2018-12-23T03:51:32.248Z,77.26
2018-12-23T03:52:06.872Z,77.36
2018-12-23T03:52:41.539Z,77.46
2018-12-23T03:53:16.521Z,77.17
2018-12-23T03:53:51.136Z,77.73
2018-12-23T03:54:26.040Z,77.86
2018-12-23T03:55:00.974Z,77.74
2018-12-23T03:55:35.671Z,77.92
2018-12-23T03:56:10.260Z,77.60
2018-12-23T03:56:44.852Z,78.30
2018-12-23T03:57:19.463Z,78.04
2018-12-23T03:57:54.399Z,77.35
2018-12-23T03:58:29.104Z,77.37
2018-12-23T03:59:03.787Z,77.53
2018-12-23T03:59:38.517Z,78.18
2018-12-23T04:00:13.158Z,77.36
2018-12-23T04:00:47.873Z,77.53
2018-12-23T04:01:22.664Z,78.08
2018-12-23T04:01:57.468Z,78.21
2018-12-23T04:02:32.463Z,77.89
2018-12-23T04:03:07.296Z,78.23
2018-12-23T04:03:41.889Z,77.92
2018-12-23T04:04:16.582Z,78.51
2018-12-23T04:04:51.227Z,78.31
2018-12-23T04:05:26.050Z,78.17
2018-12-23T04:06:01.113Z,78.21
2018-12-23T04:06:35.756Z,77.90
2018-12-23T04:07:10.471Z,78.13
2018-12-23T04:07:45.063Z,78.34
2018-12-23T04:08:19.687Z,77.84
2018-12-23T04:08:54.475Z,78.64
2018-12-23T04:09:29.268Z,78.29
2018-12-23T04:10:05.055Z,78.11
2018-12-23T04:10:39.704Z,77.92
2018-12-23T04:11:14.381Z,77.98
2018-12-23T04:11:49.052Z,77.77
2018-12-23T04:12:23.938Z,77.77
2018-12-23T04:12:59.111Z,77.33
2018-12-23T04:13:33.731Z,77.84
2018-12-23T04:14:08.317Z,77.85
2018-12-23T04:14:43.095Z,77.48
2018-12-23T04:15:17.731Z,77.96
2018-12-23T04:15:52.543Z,77.95
2018-12-23T04:16:27.236Z,77.86
2018-12-23T04:17:02.143Z,78.43
2018-12-23T04:17:36.729Z,78.20
2018-12-23T04:18:11.371Z,77.68
2018-12-23T04:18:46.011Z,77.57
2018-12-23T04:19:20.659Z,77.57
2018-12-23T04:19:55.663Z,77.51
2018-12-23T04:20:30.432Z,77.86
2018-12-23T04:21:05.213Z,77.03
2018-12-23T04:21:39.853Z,77.46
2018-12-23T04:22:14.545Z,77.33
2018-12-23T04:22:49.602Z,77.50
2018-12-23T04:23:24.910Z,78.02
2018-12-23T04:23:59.912Z,77.15
2018-12-23T04:24:34.670Z,77.65
2018-12-23T04:25:09.355Z,77.13
2018-12-23T04:25:44.184Z,77.49
2018-12-23T04:26:18.898Z,77.21
2018-12-23T04:26:53.701Z,77.55
2018-12-23T04:27:28.524Z,77.15
2018-12-23T04:28:03.251Z,77.26
2018-12-23T04:28:37.954Z,77.25
2018-12-23T04:29:12.641Z,76.78
2018-12-23T04:29:47.311Z,76.77
2018-12-23T04:30:22.079Z,77.13
2018-12-23T04:30:57.008Z,76.60
2018-12-23T04:31:31.760Z,77.64
2018-12-23T04:32:06.378Z,77.45
2018-12-23T04:32:41.112Z,77.54
2018-12-23T04:33:15.779Z,77.26
2018-12-23T04:33:50.594Z,77.26
2018-12-23T04:34:25.759Z,77.16
2018-12-23T04:35:00.673Z,77.19
2018-12-23T04:35:35.269Z,77.11
2018-12-23T04:36:09.998Z,76.73
2018-12-23T04:36:44.767Z,76.64
2018-12-23T04:37:19.395Z,77.02
2018-12-23T04:37:55.063Z,76.21
2018-12-23T04:38:29.816Z,76.37
2018-12-23T04:39:06.370Z,76.77
2018-12-23T04:39:41.044Z,76.86
2018-12-23T04:40:15.649Z,76.65
2018-12-23T04:40:50.781Z,77.35
2018-12-23T04:41:25.595Z,76.98
2018-12-23T04:42:00.292Z,77.06
2018-12-23T04:42:35.191Z,77.62
2018-12-23T04:43:09.793Z,77.95
2018-12-23T04:43:44.489Z,77.92
2018-12-23T04:44:19.113Z,78.04
2018-12-23T04:44:53.879Z,77.92
2018-12-23T04:45:28.566Z,78.17
2018-12-23T04:46:03.733Z,78.54
2018-12-23T04:46:38.441Z,78.10
2018-12-23T04:47:13.056Z,77.42
2018-12-23T04:47:47.680Z,76.95
2018-12-23T04:48:22.373Z,76.91
2018-12-23T04:48:57.098Z,76.91
2018-12-23T04:49:31.950Z,76.95
2018-12-23T04:50:07.902Z,77.27
2018-12-23T04:50:42.506Z,77.29
2018-12-23T04:51:17.130Z,77.42
2018-12-23T04:51:52.260Z,76.97
2018-12-23T04:52:27.021Z,77.25
2018-12-23T04:53:01.924Z,77.38
2018-12-23T04:53:36.525Z,77.50
2018-12-23T04:54:11.143Z,77.69
2018-12-23T04:54:45.939Z,77.66
2018-12-23T04:55:20.551Z,77.22
2018-12-23T04:55:55.314Z,78.22
2018-12-23T04:56:30.101Z,77.50
2018-12-23T04:57:04.702Z,77.76
2018-12-23T04:57:39.396Z,77.89
2018-12-23T04:58:13.999Z,78.06
2018-12-23T04:58:48.644Z,78.01
2018-12-23T04:59:23.361Z,78.15
2018-12-23T04:59:58.162Z,77.41
2018-12-23T05:00:32.791Z,78.13
2018-12-23T05:01:07.422Z,78.49
2018-12-23T05:01:42.041Z,78.40
2018-12-23T05:02:16.670Z,78.12
2018-12-23T05:02:51.407Z,78.65
2018-12-23T05:03:26.127Z,78.30
2018-12-23T05:04:00.831Z,78.05
2018-12-23T05:04:35.433Z,78.51
2018-12-23T05:05:10.025Z,78.62
2018-12-23T05:05:44.633Z,78.40
2018-12-23T05:06:19.282Z,78.57
2018-12-23T05:06:54.454Z,78.54
2018-12-23T05:07:29.317Z,78.07
2018-12-23T05:08:04.108Z,78.18
2018-12-23T05:08:38.724Z,78.05
2018-12-23T05:09:13.353Z,78.65
2018-12-23T05:09:48.242Z,78.67
2018-12-23T05:10:23.217Z,78.51
2018-12-23T05:10:57.931Z,78.62
2018-12-23T05:11:32.551Z,79.21
2018-12-23T05:12:07.284Z,79.02
2018-12-23T05:12:41.898Z,78.65
2018-12-23T05:13:16.523Z,78.82
2018-12-23T05:13:51.158Z,78.91
2018-12-23T05:14:25.931Z,78.99
2018-12-23T05:15:00.840Z,78.66
2018-12-23T05:15:35.740Z,78.76
2018-12-23T05:16:10.376Z,78.68
2018-12-23T05:16:44.979Z,78.11
2018-12-23T05:17:19.589Z,78.43
2018-12-23T05:17:54.368Z,78.09
2018-12-23T05:18:29.184Z,77.98
2018-12-23T05:19:03.998Z,78.13
2018-12-23T05:19:38.871Z,78.72
2018-12-23T05:20:13.490Z,78.67
2018-12-23T05:20:48.123Z,78.63
2018-12-23T05:21:23.239Z,78.21
2018-12-23T05:21:58.074Z,78.06
2018-12-23T05:22:32.931Z,78.77
2018-12-23T05:23:07.584Z,78.81
2018-12-23T05:23:42.236Z,78.81
2018-12-23T05:24:16.901Z,78.73
2018-12-23T05:24:51.558Z,78.62
2018-12-23T05:25:26.340Z,78.60
2018-12-23T05:26:01.169Z,78.42
2018-12-23T05:26:35.873Z,78.41
2018-12-23T05:27:10.512Z,78.63
2018-12-23T05:27:45.176Z,78.13
2018-12-23T05:28:20.856Z,78.57
2018-12-23T05:28:55.808Z,78.50
2018-12-23T05:29:30.504Z,78.26
2018-12-23T05:30:05.715Z,78.21
2018-12-23T05:31:21.261Z,78.12
2018-12-23T05:31:56.079Z,77.77
2018-12-23T05:32:31.174Z,78.39
2018-12-23T05:33:05.788Z,78.16
2018-12-23T05:33:40.427Z,78.37
2018-12-23T05:34:15.038Z,78.17
2018-12-23T05:34:49.665Z,78.36
2018-12-23T05:35:24.349Z,78.16
2018-12-23T05:35:59.503Z,78.83
2018-12-23T05:36:34.128Z,78.75
2018-12-23T05:37:08.840Z,77.90
2018-12-23T05:37:43.948Z,78.21
2018-12-23T05:38:18.625Z,78.42
2018-12-23T05:38:53.323Z,77.83
2018-12-23T05:39:27.959Z,78.17
2018-12-23T05:40:03.067Z,77.99
2018-12-23T05:40:37.652Z,77.98
2018-12-23T05:41:12.841Z,78.33
2018-12-23T05:41:47.430Z,77.88
2018-12-23T05:42:22.284Z,78.48
2018-12-23T05:42:57.132Z,77.74
2018-12-23T05:43:31.754Z,77.70
2018-12-23T05:44:06.388Z,78.24
2018-12-23T05:44:41.022Z,78.26
2018-12-23T05:45:15.646Z,77.51
2018-12-23T05:45:50.351Z,77.62
2018-12-23T05:46:25.064Z,77.65
2018-12-23T05:46:59.721Z,77.99
2018-12-23T05:47:34.433Z,78.79
2018-12-23T05:48:09.048Z,78.60
2018-12-23T05:48:43.730Z,78.79
2018-12-23T05:49:18.350Z,78.57
2018-12-23T05:49:52.982Z,78.90
2018-12-23T05:50:27.751Z,78.75
2018-12-23T05:51:02.430Z,78.42
2018-12-23T05:51:37.055Z,78.54
2018-12-23T05:52:11.648Z,78.48
2018-12-23T05:52:46.358Z,78.69
2018-12-23T05:53:20.954Z,78.35
2018-12-23T05:53:55.704Z,78.84
2018-12-23T05:54:30.516Z,78.77
2018-12-23T05:55:05.097Z,79.27
2018-12-23T05:55:38.666Z,78.51
2018-12-23T05:56:13.308Z,78.71
2018-12-23T05:56:47.923Z,78.88
2018-12-23T05:57:22.589Z,78.94
2018-12-23T05:57:57.300Z,78.42
2018-12-23T05:58:32.659Z,78.55
2018-12-23T05:59:07.258Z,78.67
2018-12-23T05:59:42.021Z,78.89
2018-12-23T06:00:16.648Z,78.92
2018-12-23T06:00:51.703Z,78.37
2018-12-23T06:01:26.348Z,78.04
2018-12-23T06:02:01.129Z,77.98
2018-12-23T06:02:35.913Z,78.46
2018-12-23T06:03:10.546Z,78.79
2018-12-23T06:03:45.242Z,78.72
2018-12-23T06:04:19.995Z,78.58
2018-12-23T06:04:54.707Z,78.63
2018-12-23T06:05:29.464Z,78.25
2018-12-23T06:06:04.078Z,78.06
2018-12-23T06:06:38.691Z,78.48
2018-12-23T06:07:13.485Z,78.59
2018-12-23T06:07:48.131Z,78.24
2018-12-23T06:08:23.041Z,78.62
2018-12-23T06:08:57.743Z,78.51
2018-12-23T06:09:32.471Z,78.73
2018-12-23T06:10:07.163Z,78.74
2018-12-23T06:10:42.144Z,77.78
2018-12-23T06:11:16.821Z,78.08
2018-12-23T06:11:51.664Z,77.84
2018-12-23T06:12:26.311Z,78.44
2018-12-23T06:13:01.180Z,78.54
2018-12-23T06:13:35.739Z,77.71
2018-12-23T06:14:10.354Z,77.52
2018-12-23T06:14:44.960Z,77.75
2018-12-23T06:15:19.602Z,78.13
2018-12-23T06:15:54.859Z,78.19
2018-12-23T06:16:29.509Z,78.31
2018-12-23T06:17:04.162Z,78.52
2018-12-23T06:17:38.848Z,78.75
2018-12-23T06:18:13.488Z,78.49
2018-12-23T06:18:48.093Z,78.08
2018-12-23T06:19:22.884Z,78.00
2018-12-23T06:19:57.818Z,78.38
2018-12-23T06:20:32.500Z,78.01
2018-12-23T06:21:07.068Z,78.15
2018-12-23T06:21:41.676Z,78.47
2018-12-23T06:22:16.310Z,78.16
2018-12-23T06:22:51.643Z,77.96
2018-12-23T06:23:26.376Z,78.01
2018-12-23T06:24:01.114Z,78.38
2018-12-23T06:24:35.779Z,78.40
2018-12-23T06:25:10.461Z,78.08
2018-12-23T06:25:45.089Z,78.18
2018-12-23T06:26:20.066Z,78.31
2018-12-23T06:26:54.712Z,77.42
2018-12-23T06:27:29.398Z,78.03
2018-12-23T06:28:04.119Z,78.28
2018-12-23T06:28:38.742Z,78.67
2018-12-23T06:29:13.361Z,78.77
2018-12-23T06:29:48.062Z,78.72
2018-12-23T06:30:22.824Z,78.35
2018-12-23T06:30:57.869Z,78.62
2018-12-23T06:31:32.589Z,78.49
2018-12-23T06:32:07.283Z,78.55
2018-12-23T06:32:42.040Z,78.33
2018-12-23T06:33:17.165Z,78.60
2018-12-23T06:33:51.860Z,77.94
2018-12-23T06:34:26.649Z,78.15
2018-12-23T06:35:01.416Z,78.42
2018-12-23T06:35:36.043Z,78.26
2018-12-23T06:36:10.716Z,78.54
2018-12-23T06:36:45.343Z,78.47
2018-12-23T06:37:19.958Z,78.93
2018-12-23T06:37:54.786Z,78.01
2018-12-23T06:38:29.497Z,78.40
2018-12-23T06:39:06.480Z,78.92
2018-12-23T06:39:41.166Z,78.57
2018-12-23T06:40:15.776Z,78.53
2018-12-23T06:40:50.458Z,78.41
2018-12-23T06:41:25.158Z,78.45
2018-12-23T06:42:00.035Z,77.87
2018-12-23T06:42:35.032Z,78.07
2018-12-23T06:43:09.653Z,78.41
2018-12-23T06:43:44.347Z,78.26
2018-12-23T06:44:18.930Z,78.16
2018-12-23T06:44:53.854Z,77.89
2018-12-23T06:45:28.549Z,78.02
2018-12-23T06:46:03.402Z,77.85
2018-12-23T06:46:38.046Z,78.69
2018-12-23T06:47:12.703Z,78.54
2018-12-23T06:47:47.409Z,78.14
2018-12-23T06:48:22.217Z,78.43
2018-12-23T06:48:57.073Z,77.49
2018-12-23T06:49:31.865Z,78.12
2018-12-23T06:50:06.678Z,78.26
2018-12-23T06:50:41.314Z,78.11
2018-12-23T06:51:15.965Z,78.77
2018-12-23T06:51:50.630Z,78.53
2018-12-23T06:52:25.397Z,78.56
2018-12-23T06:53:00.110Z,78.76
2018-12-23T06:53:34.802Z,78.16
2018-12-23T06:54:09.692Z,78.89
2018-12-23T06:54:44.287Z,78.50
2018-12-23T06:55:18.934Z,77.97
2018-12-23T06:55:53.816Z,78.25
2018-12-23T06:56:28.635Z,78.27
2018-12-23T06:57:03.260Z,78.16
2018-12-23T06:57:37.881Z,77.41
2018-12-23T06:58:12.627Z,77.69
2018-12-23T06:58:47.231Z,77.61
2018-12-23T06:59:21.911Z,77.93
2018-12-23T06:59:56.653Z,77.83
2018-12-23T07:00:31.250Z,78.04
2018-12-23T07:01:05.875Z,77.73
2018-12-23T07:01:40.659Z,77.82
2018-12-23T07:02:15.330Z,77.77
2018-12-23T07:02:49.954Z,78.00
2018-12-23T07:03:24.612Z,78.10
2018-12-23T07:03:59.675Z,77.77
2018-12-23T07:04:34.406Z,77.92
2018-12-23T07:05:09.326Z,77.97
2018-12-23T07:05:43.915Z,78.05
2018-12-23T07:06:18.828Z,78.50
2018-12-23T07:06:53.581Z,77.93
2018-12-23T07:07:28.327Z,77.93
2018-12-23T07:08:03.062Z,78.04
2018-12-23T07:08:37.714Z,77.92
2018-12-23T07:09:12.350Z,77.90
2018-12-23T07:09:46.961Z,78.05
2018-12-23T07:10:21.693Z,77.86
2018-12-23T07:10:56.876Z,77.80
2018-12-23T07:11:31.737Z,77.54
2018-12-23T07:12:06.346Z,77.93
2018-12-23T07:12:40.946Z,77.53
2018-12-23T07:13:15.599Z,77.57
2018-12-23T07:13:50.260Z,77.61
2018-12-23T07:14:25.326Z,77.39
2018-12-23T07:15:00.082Z,77.75
2018-12-23T07:15:35.011Z,77.89
2018-12-23T07:16:09.631Z,77.55
2018-12-23T07:16:44.363Z,77.77
2018-12-23T07:17:18.998Z,77.77
2018-12-23T07:17:53.870Z,77.95
2018-12-23T07:18:28.733Z,77.24
2018-12-23T07:19:03.892Z,77.72
2018-12-23T07:19:38.474Z,77.83
2018-12-23T07:20:13.372Z,77.61
2018-12-23T07:20:48.034Z,77.87
2018-12-23T07:21:23.294Z,77.62
2018-12-23T07:21:58.132Z,78.05
2018-12-23T07:22:32.789Z,77.42
2018-12-23T07:23:07.524Z,77.21
2018-12-23T07:23:42.266Z,77.15
2018-12-23T07:24:17.060Z,77.04
2018-12-23T07:24:51.891Z,77.17
2018-12-23T07:25:26.698Z,77.47
2018-12-23T07:26:01.374Z,77.41
2018-12-23T07:26:36.010Z,77.53
2018-12-23T07:27:10.678Z,77.65
2018-12-23T07:27:45.290Z,77.92
2018-12-23T07:28:19.901Z,78.06